Time;durP1;ratioP1;P1;durP2;ratioP2;P2;SDS_P1;SDS_P2;PMS_P1;PMS_P2;Temp;Humidity;BMP_temperature;BMP_pressure;BME280_temperature;BME280_humidity;BME280_pressure;Samples;Min_cycle;Max_cycle;Signal;HPM_P1;HPM_P2
2023/04/18 00:00:55;;;;;;;28.83;13.60;;;9.00;99.90;;;;;;5053355;28;20183;-73
2023/04/18 00:03:22;;;;;;;28.07;14.17;;;9.00;99.90;;;;;;5035010;28;20588;-73
2023/04/18 00:05:49;;;;;;;28.33;13.77;;;9.00;99.90;;;;;;5035253;28;20206;-73
2023/04/18 00:08:16;;;;;;;23.07;12.70;;;8.90;99.90;;;;;;5052977;28;20197;-72
2023/04/18 00:10:43;;;;;;;25.27;13.23;;;8.90;99.90;;;;;;5035453;28;20198;-76
2023/04/18 00:13:10;;;;;;;25.57;12.93;;;8.90;99.90;;;;;;5035458;28;20648;-73
2023/04/18 00:15:38;;;;;;;27.23;13.60;;;8.90;99.90;;;;;;5052566;28;20211;-73
2023/04/18 00:18:05;;;;;;;24.60;13.43;;;8.90;99.90;;;;;;5034876;28;20209;-78
2023/04/18 00:20:32;;;;;;;26.27;13.27;;;8.90;99.90;;;;;;5052976;28;20607;-72
2023/04/18 00:22:59;;;;;;;26.87;13.87;;;9.00;99.90;;;;;;5034962;28;20193;-74
2023/04/18 00:25:26;;;;;;;23.47;12.20;;;8.90;99.90;;;;;;5053056;28;20191;-73
2023/04/18 00:27:53;;;;;;;26.27;13.53;;;8.80;99.90;;;;;;5035211;28;20236;-78
2023/04/18 00:30:20;;;;;;;28.97;13.20;;;8.90;99.90;;;;;;5034641;28;20722;-73
2023/04/18 00:32:47;;;;;;;26.53;12.93;;;8.90;99.90;;;;;;5052733;28;20186;-73
2023/04/18 00:35:14;;;;;;;29.10;13.97;;;8.90;99.90;;;;;;5034987;28;20268;-77
2023/04/18 00:37:40;;;;;;;27.77;13.67;;;8.90;99.90;;;;;;5034445;28;20194;-73
2023/04/18 00:40:08;;;;;;;23.77;12.30;;;8.90;99.90;;;;;;5052680;28;20667;-73
2023/04/18 00:42:35;;;;;;;25.30;12.90;;;8.90;99.90;;;;;;5034713;28;20237;-73
2023/04/18 00:45:02;;;;;;;25.17;12.73;;;8.90;99.90;;;;;;5034608;28;20297;-72
2023/04/18 00:47:29;;;;;;;24.23;13.73;;;8.90;99.90;;;;;;5034711;28;20191;-74
2023/04/18 00:49:56;;;;;;;26.77;13.13;;;8.90;99.90;;;;;;5052395;28;20201;-73
2023/04/18 00:52:26;;;;;;;24.37;12.70;;;8.90;99.90;;;;;;5034425;28;20641;-72
2023/04/18 00:54:53;;;;;;;27.30;13.07;;;8.90;99.90;;;;;;5034390;28;20199;-75
2023/04/18 00:57:21;;;;;;;23.53;12.47;;;8.80;99.90;;;;;;5034287;28;20770;-76
2023/04/18 00:59:48;;;;;;;24.83;13.33;;;8.80;99.90;;;;;;5034827;28;20191;-76
2023/04/18 01:02:16;;;;;;;26.43;13.27;;;8.80;99.90;;;;;;5051913;28;20210;-77
2023/04/18 01:04:43;;;;;;;23.37;12.90;;;8.90;99.90;;;;;;5034510;28;20195;-76
2023/04/18 01:07:11;;;;;;;22.77;12.70;;;8.90;99.90;;;;;;5033862;28;20198;-71
2023/04/18 01:09:39;;;;;;;21.03;11.43;;;8.90;99.90;;;;;;5034123;28;20202;-71
2023/04/18 01:12:06;;;;;;;21.90;12.53;;;8.90;99.90;;;;;;5034195;28;20206;-73
2023/04/18 01:14:33;;;;;;;22.93;12.20;;;8.90;99.90;;;;;;5034330;28;20202;-74
2023/04/18 01:17:01;;;;;;;22.73;12.23;;;8.90;99.90;;;;;;5034220;28;20684;-72
2023/04/18 01:19:27;;;;;;;24.90;12.47;;;8.90;99.90;;;;;;5034102;28;20197;-72
2023/04/18 01:21:55;;;;;;;22.07;12.47;;;9.00;99.90;;;;;;5034090;28;20198;-72
2023/04/18 01:24:25;;;;;;;21.17;11.57;;;8.90;99.90;;;;;;5034125;28;20209;-73
2023/04/18 01:26:56;;;;;;;20.53;11.70;;;8.90;99.90;;;;;;5034784;28;20659;-76
2023/04/18 01:29:24;;;;;;;24.27;12.20;;;8.90;99.90;;;;;;5038438;28;20206;-76
2023/04/18 01:31:50;;;;;;;27.03;12.90;;;8.90;99.90;;;;;;5055820;28;20198;-70
2023/04/18 01:34:18;;;;;;;23.97;12.77;;;8.90;99.90;;;;;;5038013;28;20293;-70
2023/04/18 01:36:45;;;;;;;21.13;11.67;;;8.80;99.90;;;;;;5037793;28;20241;-71
2023/04/18 01:39:13;;;;;;;21.60;12.07;;;8.90;99.90;;;;;;5056216;28;20245;-74
2023/04/18 01:41:41;;;;;;;20.93;12.17;;;8.80;99.90;;;;;;5038006;28;20740;-71
2023/04/18 01:44:08;;;;;;;23.87;12.60;;;8.80;99.90;;;;;;5026831;28;20179;-71
2023/04/18 01:46:35;;;;;;;24.53;12.60;;;8.80;99.90;;;;;;5017903;28;20199;-72
2023/04/18 01:49:02;;;;;;;23.53;12.50;;;8.80;99.90;;;;;;5017930;28;20199;-71
2023/04/18 01:51:30;;;;;;;20.63;11.83;;;8.80;99.90;;;;;;5018026;28;20291;-71
2023/04/18 01:53:57;;;;;;;22.70;11.90;;;8.80;99.90;;;;;;5017887;28;20199;-71
2023/04/18 01:56:23;;;;;;;24.20;11.93;;;8.90;99.90;;;;;;5018092;28;20219;-71
2023/04/18 01:58:50;;;;;;;23.10;12.43;;;8.80;99.90;;;;;;5017870;28;20187;-72
2023/04/18 02:01:17;;;;;;;22.50;12.10;;;8.90;99.90;;;;;;5017675;28;20199;-70
2023/04/18 02:03:44;;;;;;;22.77;12.20;;;8.80;99.90;;;;;;5017466;28;20227;-72
2023/04/18 02:06:11;;;;;;;24.03;12.30;;;8.90;99.90;;;;;;5035434;28;20219;-70
2023/04/18 02:08:38;;;;;;;22.17;12.30;;;8.90;99.90;;;;;;5001395;28;20237;-69
2023/04/18 02:11:05;;;;;;;23.30;12.33;;;8.90;99.90;;;;;;5017728;28;20196;-70
2023/04/18 02:13:32;;;;;;;21.93;12.37;;;8.80;99.90;;;;;;5017557;28;20202;-71
2023/04/18 02:15:59;;;;;;;21.03;11.83;;;8.80;99.90;;;;;;5035143;28;20211;-70
2023/04/18 02:18:33;;;;;;;23.73;12.80;;;8.80;99.90;;;;;;5017228;28;20191;-71
2023/04/18 02:21:00;;;;;;;22.13;12.43;;;8.80;99.90;;;;;;5017786;28;20198;-71
2023/04/18 02:23:27;;;;;;;25.03;13.50;;;8.90;99.90;;;;;;5017540;28;20203;-71
2023/04/18 02:25:53;;;;;;;25.07;12.93;;;8.80;99.90;;;;;;5017320;28;20202;-70
2023/04/18 02:28:21;;;;;;;21.63;12.27;;;8.80;99.90;;;;;;5035092;28;20195;-70
2023/04/18 02:30:48;;;;;;;22.07;12.57;;;8.80;99.90;;;;;;5017373;28;20219;-70
2023/04/18 02:33:14;;;;;;;22.93;12.90;;;8.80;99.90;;;;;;5017119;28;20195;-72
2023/04/18 02:35:41;;;;;;;22.83;13.53;;;8.90;99.90;;;;;;5016915;28;20207;-71
2023/04/18 02:38:08;;;;;;;22.80;12.97;;;8.90;99.90;;;;;;5016974;28;20191;-72
2023/04/18 02:40:35;;;;;;;23.77;12.90;;;8.90;99.90;;;;;;5017442;28;20202;-74
2023/04/18 02:43:02;;;;;;;22.53;13.07;;;8.90;99.90;;;;;;5017177;28;20188;-72
2023/04/18 02:45:29;;;;;;;22.50;12.80;;;8.90;99.90;;;;;;5017100;28;20206;-73
2023/04/18 02:47:55;;;;;;;23.77;12.90;;;8.90;99.90;;;;;;5034535;28;20649;-73
2023/04/18 02:50:24;;;;;;;24.37;12.77;;;9.00;99.90;;;;;;5017128;28;20291;-73
2023/04/18 02:52:54;;;;;;;26.13;13.20;;;9.00;99.90;;;;;;5017104;28;20569;-72
2023/04/18 02:55:23;;;;;;;23.03;13.10;;;9.00;99.90;;;;;;5034465;28;20194;-74
2023/04/18 02:57:50;;;;;;;26.00;13.30;;;9.00;99.90;;;;;;5016995;28;20287;-73
2023/04/18 03:00:17;;;;;;;26.83;13.20;;;9.10;99.90;;;;;;5016785;28;20238;-73
2023/04/18 03:02:43;;;;;;;24.63;13.33;;;9.10;99.90;;;;;;5013263;28;20585;-75
2023/04/18 03:05:11;;;;;;;26.17;13.87;;;9.10;99.90;;;;;;4997107;28;20192;-74
2023/04/18 03:07:38;;;;;;;27.20;14.13;;;9.10;99.90;;;;;;5013334;28;20234;-73
2023/04/18 03:10:05;;;;;;;24.10;13.57;;;9.10;99.90;;;;;;5014695;28;20207;-73
2023/04/18 03:12:32;;;;;;;26.17;12.93;;;9.10;99.90;;;;;;4996980;28;20208;-73
2023/04/18 03:14:59;;;;;;;28.83;14.37;;;9.00;99.90;;;;;;5013019;28;20645;-73
2023/04/18 03:17:26;;;;;;;26.53;14.53;;;9.00;99.90;;;;;;5014183;28;20212;-73
2023/04/18 03:19:53;;;;;;;24.10;13.53;;;9.00;99.90;;;;;;5013454;28;20204;-74
2023/04/18 03:22:20;;;;;;;25.57;13.70;;;9.00;99.90;;;;;;5013351;28;20203;-73
2023/04/18 03:24:46;;;;;;;28.23;14.37;;;9.00;99.90;;;;;;5013131;28;20599;-75
2023/04/18 03:27:13;;;;;;;27.53;14.60;;;9.10;99.90;;;;;;4996524;28;20196;-74
2023/04/18 03:29:40;;;;;;;25.63;13.90;;;9.00;99.90;;;;;;4996444;28;20228;-74
2023/04/18 03:32:07;;;;;;;26.00;14.30;;;9.00;99.90;;;;;;5012856;28;20200;-74
2023/04/18 03:34:34;;;;;;;29.33;15.30;;;9.00;99.90;;;;;;5012883;28;20207;-73
2023/04/18 03:37:01;;;;;;;27.47;14.10;;;9.10;99.90;;;;;;4996337;28;20716;-73
2023/04/18 03:39:28;;;;;;;28.10;14.90;;;9.10;99.90;;;;;;5012829;28;20204;-74
2023/04/18 03:41:54;;;;;;;29.70;15.20;;;9.10;99.90;;;;;;5012673;28;20598;-73
2023/04/18 03:44:22;;;;;;;26.97;14.13;;;9.00;99.90;;;;;;5013007;28;20196;-76
2023/04/18 03:46:50;;;;;;;25.37;14.40;;;9.10;99.90;;;;;;5013842;28;20187;-72
2023/04/18 03:49:16;;;;;;;25.87;14.43;;;9.10;99.90;;;;;;4996695;28;20202;-74
2023/04/18 03:51:48;;;;;;;24.03;13.53;;;9.10;99.90;;;;;;5011955;28;20196;-74
2023/04/18 03:54:15;;;;;;;27.03;14.57;;;9.10;99.90;;;;;;5012500;28;20283;-73
2023/04/18 03:56:43;;;;;;;26.03;14.10;;;9.10;99.90;;;;;;5012364;28;20223;-72
2023/04/18 03:59:10;;;;;;;24.27;14.10;;;9.00;99.90;;;;;;4996220;28;20185;-74
2023/04/18 04:01:37;;;;;;;22.20;13.67;;;9.10;99.90;;;;;;4995979;28;20208;-74
2023/04/18 04:04:04;;;;;;;24.63;13.53;;;9.10;99.90;;;;;;5029529;28;20234;-74
2023/04/18 04:06:31;;;;;;;25.53;14.17;;;9.10;99.90;;;;;;5033515;28;20490;-73
2023/04/18 04:08:58;;;;;;;25.43;14.47;;;9.10;99.90;;;;;;5015664;28;20245;-73
2023/04/18 04:11:25;;;;;;;25.10;13.90;;;9.10;99.90;;;;;;5033245;28;20211;-74
2023/04/18 04:13:52;;;;;;;26.53;14.27;;;9.10;99.90;;;;;;5033201;28;20274;-72
2023/04/18 04:16:19;;;;;;;27.17;14.50;;;9.10;99.90;;;;;;5015630;28;20215;-73
2023/04/18 04:18:46;;;;;;;24.80;13.93;;;9.00;99.90;;;;;;5033123;28;20195;-73
2023/04/18 04:21:13;;;;;;;23.70;13.50;;;9.00;99.90;;;;;;5015897;28;20206;-73
2023/04/18 04:23:42;;;;;;;26.47;14.00;;;9.00;99.90;;;;;;5015117;28;20209;-73
2023/04/18 04:26:09;;;;;;;25.30;13.70;;;9.10;99.90;;;;;;5015206;28;20300;-73
2023/04/18 04:28:38;;;;;;;24.57;14.07;;;9.10;99.90;;;;;;5015089;28;20196;-73
2023/04/18 04:31:08;;;;;;;25.73;14.07;;;9.10;99.90;;;;;;5033010;28;20216;-75
2023/04/18 04:33:37;;;;;;;26.97;14.87;;;9.00;99.90;;;;;;5032817;28;20299;-73
2023/04/18 04:36:06;;;;;;;26.33;13.77;;;9.00;99.90;;;;;;5014942;28;20321;-75
2023/04/18 04:38:37;;;;;;;24.03;14.07;;;9.00;99.90;;;;;;5015044;28;20203;-74
2023/04/18 04:41:08;;;;;;;25.13;14.10;;;9.10;99.90;;;;;;5015018;28;20227;-74
2023/04/18 04:43:35;;;;;;;24.27;13.97;;;9.10;99.90;;;;;;5014885;28;20184;-73
2023/04/18 04:46:03;;;;;;;21.70;13.70;;;9.10;99.90;;;;;;5014860;28;20192;-73
2023/04/18 04:48:30;;;;;;;23.60;14.07;;;9.10;99.90;;;;;;5015168;28;20203;-72
2023/04/18 04:50:58;;;;;;;24.70;13.97;;;9.10;99.90;;;;;;5014923;28;20194;-72
2023/04/18 04:53:27;;;;;;;24.27;13.90;;;9.20;99.90;;;;;;5015437;28;20195;-74
2023/04/18 04:55:53;;;;;;;25.87;14.50;;;9.20;99.90;;;;;;5014835;28;20191;-73
2023/04/18 04:58:20;;;;;;;24.93;14.10;;;9.30;99.90;;;;;;5014900;28;20200;-72
2023/04/18 05:00:51;;;;;;;27.20;14.43;;;9.30;99.90;;;;;;5014703;28;20192;-71
2023/04/18 05:03:18;;;;;;;23.07;13.77;;;9.40;99.90;;;;;;5031310;28;20288;-73
2023/04/18 05:05:46;;;;;;;24.57;14.10;;;9.40;99.90;;;;;;5032248;28;20187;-72
2023/04/18 05:08:13;;;;;;;24.13;13.57;;;9.40;99.90;;;;;;5014828;28;20187;-72
2023/04/18 05:10:40;;;;;;;24.90;13.83;;;9.50;99.90;;;;;;5014330;28;20203;-72
2023/04/18 05:13:07;;;;;;;24.13;13.87;;;9.50;99.90;;;;;;5032274;28;20297;-72
2023/04/18 05:15:34;;;;;;;31.40;14.33;;;9.50;99.90;;;;;;5014489;28;20199;-72
2023/04/18 05:18:01;;;;;;;24.67;13.90;;;9.70;99.90;;;;;;5014222;28;20247;-72
2023/04/18 05:20:27;;;;;;;27.70;14.40;;;9.60;99.90;;;;;;5014410;28;20254;-71
2023/04/18 05:22:54;;;;;;;23.47;13.83;;;9.70;99.90;;;;;;5014206;28;20649;-71
2023/04/18 05:25:21;;;;;;;25.87;14.10;;;9.70;99.90;;;;;;5014026;28;20195;-72
2023/04/18 05:27:49;;;;;;;24.40;14.03;;;9.70;99.90;;;;;;5031940;28;20668;-71
2023/04/18 05:30:16;;;;;;;25.80;13.60;;;9.60;99.90;;;;;;5014064;28;20322;-73
2023/04/18 05:32:43;;;;;;;23.70;13.80;;;9.70;99.90;;;;;;5014395;28;20621;-71
2023/04/18 05:35:10;;;;;;;24.70;13.37;;;9.70;99.90;;;;;;5014149;28;20286;-74
2023/04/18 05:37:37;;;;;;;22.93;14.17;;;9.80;99.90;;;;;;5013955;28;20229;-72
2023/04/18 05:40:05;;;;;;;24.40;13.20;;;9.80;99.90;;;;;;5013894;28;20710;-71
2023/04/18 05:42:32;;;;;;;23.60;13.67;;;9.80;99.90;;;;;;5014300;28;20210;-71
2023/04/18 05:45:08;;;;;;;23.63;13.47;;;9.80;99.90;;;;;;5014212;28;20214;-73
2023/04/18 05:47:36;;;;;;;25.07;13.97;;;9.90;99.90;;;;;;5014550;28;20186;-71
2023/04/18 05:50:03;;;;;;;25.00;13.73;;;10.00;99.90;;;;;;5014136;28;20198;-71
2023/04/18 05:52:30;;;;;;;25.10;14.17;;;10.00;99.90;;;;;;5014072;28;20196;-71
2023/04/18 05:54:57;;;;;;;22.73;13.57;;;10.00;99.90;;;;;;5031524;28;20202;-71
2023/04/18 05:57:24;;;;;;;26.30;13.87;;;10.10;99.90;;;;;;5013863;28;20595;-70
2023/04/18 05:59:51;;;;;;;25.60;13.83;;;10.10;99.90;;;;;;5014232;28;20203;-72
2023/04/18 06:02:18;;;;;;;22.90;13.33;;;10.20;99.90;;;;;;5013911;28;20232;-72
2023/04/18 06:04:45;;;;;;;23.93;13.73;;;10.20;99.90;;;;;;5014000;28;20200;-71
2023/04/18 06:07:13;;;;;;;27.03;13.63;;;10.20;99.90;;;;;;5013809;28;20238;-71
2023/04/18 06:09:40;;;;;;;24.63;13.40;;;10.30;99.90;;;;;;5013712;28;20195;-73
2023/04/18 06:12:07;;;;;;;21.93;13.17;;;10.30;99.90;;;;;;5014271;28;20551;-74
2023/04/18 06:14:34;;;;;;;24.07;13.40;;;10.30;99.90;;;;;;5016619;28;20195;-73
2023/04/18 06:17:01;;;;;;;24.30;13.87;;;10.50;99.90;;;;;;5017387;28;20239;-73
2023/04/18 06:19:28;;;;;;;26.57;14.37;;;10.50;99.90;;;;;;5035438;28;20190;-74
2023/04/18 06:21:55;;;;;;;26.43;13.23;;;10.60;99.90;;;;;;5035396;28;20207;-74
2023/04/18 06:24:25;;;;;;;22.23;13.30;;;10.60;99.90;;;;;;5035278;28;20191;-73
2023/04/18 06:26:57;;;;;;;22.60;13.20;;;10.70;99.90;;;;;;5001829;28;20191;-74
2023/04/18 06:29:26;;;;;;;22.03;13.13;;;10.70;99.90;;;;;;5017107;28;20239;-75
2023/04/18 06:31:52;;;;;;;23.33;13.17;;;10.70;99.90;;;;;;5017394;28;20195;-76
2023/04/18 06:34:19;;;;;;;22.43;13.10;;;10.70;99.90;;;;;;5017387;28;20195;-78
2023/04/18 06:36:48;;;;;;;22.80;12.77;;;10.70;99.90;;;;;;5016550;28;20676;-76
2023/04/18 06:39:15;;;;;;;26.30;13.07;;;10.70;99.90;;;;;;5017232;28;20209;-75
2023/04/18 06:41:42;;;;;;;22.13;13.13;;;10.70;99.90;;;;;;5000739;28;20234;-73
2023/04/18 06:44:09;;;;;;;21.97;12.70;;;10.80;99.90;;;;;;5017219;28;20191;-71
2023/04/18 06:46:36;;;;;;;23.20;13.03;;;10.80;99.90;;;;;;5035343;28;20279;-73
2023/04/18 06:49:03;;;;;;;22.77;12.50;;;10.80;99.90;;;;;;5016699;28;20213;-72
2023/04/18 06:51:31;;;;;;;22.73;12.97;;;10.80;99.90;;;;;;5017146;28;20195;-72
2023/04/18 06:53:59;;;;;;;22.87;12.50;;;10.80;99.90;;;;;;5016730;28;20191;-71
2023/04/18 06:56:25;;;;;;;24.20;12.93;;;10.80;99.90;;;;;;5034286;28;20214;-72
2023/04/18 06:58:52;;;;;;;23.03;13.00;;;10.80;99.90;;;;;;5016760;28;20205;-72
2023/04/18 07:01:19;;;;;;;26.43;13.10;;;10.80;99.90;;;;;;5016566;28;20187;-71
2023/04/18 07:03:46;;;;;;;23.40;13.00;;;10.80;99.90;;;;;;5034769;28;20575;-70
2023/04/18 07:06:14;;;;;;;23.97;13.87;;;10.80;99.90;;;;;;5016295;28;20207;-73
2023/04/18 07:08:41;;;;;;;24.03;12.90;;;10.70;99.90;;;;;;5016316;28;20230;-71
2023/04/18 07:11:08;;;;;;;23.80;13.60;;;10.70;99.90;;;;;;5034367;28;20223;-71
2023/04/18 07:13:34;;;;;;;27.27;13.60;;;10.70;99.90;;;;;;5016422;28;20203;-74
2023/04/18 07:16:02;;;;;;;24.53;13.77;;;10.50;99.90;;;;;;5016433;28;20199;-71
2023/04/18 07:18:29;;;;;;;24.87;13.30;;;10.40;99.90;;;;;;5033776;28;20229;-70
2023/04/18 07:21:06;;;;;;;25.77;14.50;;;10.50;99.90;;;;;;5000846;28;20238;-74
2023/04/18 07:23:33;;;;;;;25.13;13.03;;;10.60;99.90;;;;;;5016466;28;20518;-73
2023/04/18 07:26:01;;;;;;;24.23;13.00;;;10.60;99.90;;;;;;5015027;28;20238;-72
2023/04/18 07:28:30;;;;;;;24.10;13.30;;;10.60;99.90;;;;;;5033879;28;20223;-73
2023/04/18 07:30:57;;;;;;;23.73;13.03;;;10.70;99.90;;;;;;5016206;28;20212;-73
2023/04/18 07:33:24;;;;;;;23.57;13.70;;;10.60;99.90;;;;;;5015879;28;20660;-73
2023/04/18 07:35:51;;;;;;;21.53;12.93;;;10.70;99.90;;;;;;4999818;28;20559;-72
2023/04/18 07:38:19;;;;;;;25.20;13.30;;;10.80;99.90;;;;;;5016168;28;20219;-73
2023/04/18 07:40:45;;;;;;;29.07;13.67;;;11.00;99.90;;;;;;5033369;28;20273;-72
2023/04/18 07:43:13;;;;;;;25.60;13.10;;;11.10;99.90;;;;;;5033954;28;20218;-71
2023/04/18 07:45:42;;;;;;;24.27;13.07;;;11.30;99.90;;;;;;5015564;28;20586;-72
2023/04/18 07:48:09;;;;;;;23.63;12.70;;;11.40;99.90;;;;;;5015703;28;20298;-72
2023/04/18 07:50:37;;;;;;;26.37;13.63;;;11.60;99.90;;;;;;5016070;28;20200;-73
2023/04/18 07:53:04;;;;;;;24.03;13.60;;;11.80;99.90;;;;;;5015904;28;20199;-70
2023/04/18 07:55:31;;;;;;;25.33;12.37;;;12.00;99.90;;;;;;5015607;28;20195;-73
2023/04/18 07:57:58;;;;;;;18.83;11.80;;;12.20;99.90;;;;;;5015386;28;20223;-76
2023/04/18 08:00:25;;;;;;;24.17;12.27;;;12.30;99.90;;;;;;5015489;28;20195;-72
2023/04/18 08:02:52;;;;;;;26.37;12.53;;;12.50;99.90;;;;;;5015003;28;20246;-71
2023/04/18 08:05:19;;;;;;;24.40;12.77;;;12.70;99.90;;;;;;5015557;28;20227;-73
2023/04/18 08:08:07;;;;;;;21.67;12.43;;;12.80;99.90;;;;;;5033493;28;20196;-71
2023/04/18 08:10:34;;;;;;;22.90;12.27;;;13.00;99.90;;;;;;5015409;28;20203;-71
2023/04/18 08:13:02;;;;;;;21.47;12.10;;;12.90;99.90;;;;;;5015282;28;20725;-75
2023/04/18 08:15:31;;;;;;;19.83;12.63;;;13.10;99.90;;;;;;5015150;28;20200;-70
2023/04/18 08:17:59;;;;;;;19.97;11.97;;;13.20;99.90;;;;;;5015168;28;20318;-74
2023/04/18 08:20:26;;;;;;;21.53;12.07;;;13.40;99.90;;;;;;5033109;28;20250;-75
2023/04/18 08:22:53;;;;;;;19.17;12.40;;;13.50;99.90;;;;;;5015314;28;20207;-71
2023/04/18 08:25:32;;;;;;;20.83;12.00;;;13.70;99.90;;;;;;5015410;28;20199;-72
2023/04/18 08:27:59;;;;;;;20.90;12.43;;;13.90;99.90;;;;;;5015062;28;20201;-74
2023/04/18 08:30:26;;;;;;;20.67;12.27;;;14.20;99.90;;;;;;5032713;28;20207;-70
2023/04/18 08:32:53;;;;;;;19.20;11.47;;;15.00;99.90;;;;;;5014888;28;20200;-70
2023/04/18 08:35:20;;;;;;;17.90;11.23;;;15.70;99.90;;;;;;5015324;28;20210;-70
2023/04/18 08:37:47;;;;;;;17.63;10.53;;;16.30;99.90;;;;;;5032206;28;20214;-71
2023/04/18 08:40:14;;;;;;;16.43;10.23;;;16.60;99.90;;;;;;5015020;28;20294;-70
2023/04/18 08:42:43;;;;;;;19.57;10.73;;;16.70;99.90;;;;;;5011776;28;20657;-73
2023/04/18 08:45:18;;;;;;;16.17;10.37;;;16.60;99.90;;;;;;5014349;28;20191;-74
2023/04/18 08:47:47;;;;;;;19.80;10.87;;;16.40;99.90;;;;;;5014609;28;20688;-74
2023/04/18 08:50:16;;;;;;;17.53;11.07;;;16.40;99.90;;;;;;5014855;28;20210;-73
2023/04/18 08:52:49;;;;;;;16.30;10.40;;;16.90;99.90;;;;;;5014718;28;20250;-73
2023/04/18 08:55:17;;;;;;;16.70;10.30;;;17.40;99.90;;;;;;5014132;28;20245;-74
2023/04/18 08:57:44;;;;;;;15.80;10.23;;;17.80;99.90;;;;;;5014357;28;20250;-73
2023/04/18 09:00:12;;;;;;;16.37;10.30;;;17.50;99.90;;;;;;5032312;28;20191;-73
2023/04/18 09:02:45;;;;;;;18.30;10.13;;;17.30;99.90;;;;;;5014065;28;20234;-73
2023/04/18 09:05:18;;;;;;;19.57;10.43;;;17.20;99.90;;;;;;5031785;28;20243;-72
2023/04/18 09:07:46;;;;;;;19.03;9.67;;;17.00;99.90;;;;;;5014191;28;20257;-73
2023/04/18 09:10:31;;;;;;;16.23;10.80;;;16.90;99.90;;;;;;5032038;28;20214;-75
2023/04/18 09:13:03;;;;;;;20.20;9.63;;;17.00;99.90;;;;;;5014132;28;20207;-74
2023/04/18 09:15:53;;;;;;;14.57;9.57;;;17.00;99.90;;;;;;5015829;28;20293;-74
2023/04/18 09:18:20;;;;;;;16.50;9.40;;;17.20;99.90;;;;;;5031831;28;20219;-74
2023/04/18 09:20:48;;;;;;;15.77;9.50;;;17.50;99.90;;;;;;4997841;28;20661;-72
2023/04/18 09:23:23;;;;;;;22.10;9.17;;;17.70;99.90;;;;;;5031742;28;20202;-73
2023/04/18 09:25:51;;;;;;;15.03;8.93;;;17.70;99.90;;;;;;5031522;28;20194;-72
2023/04/18 09:28:29;;;;;;;20.83;9.97;;;18.20;99.90;;;;;;5014219;28;20712;-75
2023/04/18 09:31:06;;;;;;;14.77;8.50;;;18.50;99.90;;;;;;5014082;28;20304;-72
2023/04/18 09:33:33;;;;;;;12.60;8.37;;;18.70;99.90;;;;;;5014024;28;20202;-73
2023/04/18 09:36:22;;;;;;;23.80;10.40;;;18.90;99.90;;;;;;4997513;28;20568;-73
2023/04/18 09:38:51;;;;;;;14.03;8.70;;;19.00;99.90;;;;;;5013965;28;20697;-73
2023/04/18 09:41:22;;;;;;;15.87;8.57;;;19.00;99.90;;;;;;5014113;28;20596;-73
2023/04/18 09:43:50;;;;;;;13.97;8.80;;;19.00;99.90;;;;;;5014179;28;20196;-73
2023/04/18 09:46:20;;;;;;;13.37;7.67;;;18.90;99.90;;;;;;5014175;28;20198;-74
2023/04/18 09:48:47;;;;;;;13.70;8.07;;;19.10;99.90;;;;;;5015884;28;20207;-75
2023/04/18 09:51:15;;;;;;;14.80;7.90;;;19.40;99.90;;;;;;5018366;28;20196;-73
2023/04/18 09:53:51;;;;;;;19.63;8.43;;;19.70;99.90;;;;;;5018427;28;20534;-72
2023/04/18 09:56:28;;;;;;;13.43;8.63;;;20.10;99.90;;;;;;5035537;28;20253;-72
2023/04/18 09:59:01;;;;;;;21.83;9.40;;;20.30;99.90;;;;;;5018026;28;20219;-73
2023/04/18 10:01:29;;;;;;;14.53;8.47;;;20.60;99.90;;;;;;5017946;28;20204;-74
2023/04/18 10:04:00;;;;;;;14.57;8.37;;;20.70;99.90;;;;;;5035582;28;20285;-72
2023/04/18 10:06:27;;;;;;;13.43;8.30;;;20.60;99.90;;;;;;5017920;28;20663;-74
2023/04/18 10:08:54;;;;;;;13.80;8.70;;;21.10;99.90;;;;;;5014458;28;20206;-74
2023/04/18 10:11:23;;;;;;;13.70;8.10;;;21.40;99.90;;;;;;5017129;28;20196;-74
2023/04/18 10:13:55;;;;;;;13.30;8.80;;;21.60;99.90;;;;;;5001196;28;20210;-74
2023/04/18 10:16:22;;;;;;;13.93;8.60;;;21.70;99.90;;;;;;5017254;28;20258;-75
2023/04/18 10:18:52;;;;;;;11.83;7.63;;;21.70;99.90;;;;;;5035007;28;20275;-77
2023/04/18 10:21:20;;;;;;;11.73;7.77;;;21.60;99.90;;;;;;5035099;28;20194;-77
2023/04/18 10:23:47;;;;;;;9.93;7.63;;;21.10;99.90;;;;;;5034799;28;20198;-76
2023/04/18 10:26:15;;;;;;;12.93;7.80;;;21.20;99.90;;;;;;5016988;28;20676;-77
2023/04/18 10:28:56;;;;;;;19.27;8.60;;;21.10;99.90;;;;;;5017261;28;20204;-73
2023/04/18 10:31:28;;;;;;;10.63;7.30;;;21.20;99.90;;;;;;5001394;28;20219;-83
2023/04/18 10:33:59;;;;;;;12.47;7.67;;;21.50;99.90;;;;;;5017906;28;20196;-86
2023/04/18 10:37:02;;;;;;;13.73;8.00;;;21.70;99.90;;;;;;5035673;28;20652;-84
2023/04/18 10:39:29;;;;;;;12.17;8.67;;;22.20;99.90;;;;;;5016795;28;20248;-81
2023/04/18 10:41:56;;;;;;;14.13;7.97;;;22.40;98.80;;;;;;5017405;28;20222;-79
2023/04/18 10:44:23;;;;;;;15.60;8.43;;;22.30;99.50;;;;;;5017102;28;20242;-73
2023/04/18 10:46:50;;;;;;;17.13;8.57;;;21.90;98.80;;;;;;5034495;28;20274;-76
2023/04/18 10:49:25;;;;;;;14.80;8.37;;;21.00;99.80;;;;;;5017074;28;20200;-75
2023/04/18 10:51:59;;;;;;;12.00;7.53;;;20.60;99.90;;;;;;5016731;28;20206;-74
2023/04/18 10:54:50;;;;;;;12.00;7.53;;;20.40;99.90;;;;;;5034431;28;20187;-76
2023/04/18 10:57:17;;;;;;;16.13;8.20;;;20.60;99.90;;;;;;5016658;28;20560;-76
2023/04/18 10:59:49;;;;;;;13.07;7.40;;;20.60;99.90;;;;;;5034416;28;20964;-76
2023/04/18 11:02:31;;;;;;;11.73;7.20;;;20.90;99.90;;;;;;5034003;28;21092;-72
2023/04/18 11:05:01;;;;;;;11.73;7.37;;;21.40;99.90;;;;;;5016638;28;20238;-74
2023/04/18 11:07:47;;;;;;;13.80;7.67;;;21.80;99.90;;;;;;5019018;28;20281;-75
2023/04/18 11:10:20;;;;;;;11.97;7.40;;;22.00;98.30;;;;;;5036409;28;20306;-72
2023/04/18 11:12:48;;;;;;;11.83;7.87;;;21.80;97.00;;;;;;5036412;28;20198;-74
2023/04/18 11:15:20;;;;;;;12.20;7.50;;;21.80;97.40;;;;;;5035978;28;20567;-76
2023/04/18 11:17:56;;;;;;;11.40;7.07;;;21.60;97.10;;;;;;5036188;28;20241;-71
2023/04/18 11:20:24;;;;;;;9.70;6.90;;;21.40;97.10;;;;;;5036006;28;20203;-72
2023/04/18 11:22:59;;;;;;;9.40;6.73;;;21.20;97.50;;;;;;5053991;28;20805;-74
2023/04/18 11:25:31;;;;;;;10.77;6.93;;;21.00;97.60;;;;;;5053625;28;20201;-73
2023/04/18 11:28:00;;;;;;;11.07;7.27;;;21.00;96.60;;;;;;5053803;28;20195;-72
2023/04/18 11:30:35;;;;;;;13.90;7.83;;;21.10;96.20;;;;;;5053498;28;20297;-73
2023/04/18 11:33:10;;;;;;;10.63;7.17;;;21.00;95.80;;;;;;5035610;28;20248;-74
2023/04/18 11:35:44;;;;;;;10.47;7.00;;;21.00;97.80;;;;;;5053418;28;20578;-74
2023/04/18 11:38:17;;;;;;;11.57;7.13;;;21.10;96.80;;;;;;5035100;28;20317;-73
2023/04/18 11:40:48;;;;;;;10.97;7.50;;;21.00;98.00;;;;;;5035749;28;20244;-75
2023/04/18 11:43:21;;;;;;;16.90;8.00;;;21.20;97.40;;;;;;5053285;28;20191;-77
2023/04/18 11:45:55;;;;;;;15.50;6.63;;;21.00;97.40;;;;;;5053321;28;20199;-75
2023/04/18 11:48:23;;;;;;;11.00;6.37;;;20.60;95.10;;;;;;5053270;28;20200;-77
2023/04/18 11:50:49;;;;;;;10.60;6.73;;;20.20;95.50;;;;;;5035533;28;20202;-75
2023/04/18 11:53:34;;;;;;;12.43;7.47;;;20.00;97.50;;;;;;5035215;28;20207;-75
2023/04/18 11:56:02;;;;;;;17.03;7.90;;;19.70;99.40;;;;;;5051510;28;20202;-77
2023/04/18 11:58:33;;;;;;;13.97;8.20;;;19.60;99.90;;;;;;5034782;28;20211;-75
2023/04/18 12:01:24;;;;;;;13.87;8.27;;;19.40;99.90;;;;;;5035108;28;20289;-77
2023/04/18 12:04:02;;;;;;;14.13;8.53;;;19.40;99.90;;;;;;5036462;28;20692;-75
2023/04/18 12:06:50;;;;;;;13.10;8.53;;;18.80;99.90;;;;;;5034641;28;20612;-76
2023/04/18 12:09:18;;;;;;;12.07;8.20;;;18.40;99.90;;;;;;5034457;28;20205;-75
2023/04/18 12:12:02;;;;;;;13.37;8.90;;;18.20;99.90;;;;;;5034266;28;20529;-73
2023/04/18 12:14:30;;;;;;;12.00;8.13;;;18.10;99.90;;;;;;5052916;28;20622;-76
2023/04/18 12:17:02;;;;;;;13.23;7.70;;;17.90;99.90;;;;;;5034767;28;20198;-78
2023/04/18 12:19:31;;;;;;;15.93;8.30;;;17.80;99.90;;;;;;5034754;28;20284;-75
2023/04/18 12:22:00;;;;;;;13.33;8.10;;;17.80;99.90;;;;;;5035018;28;20230;-74
2023/04/18 12:24:27;;;;;;;11.77;7.70;;;17.80;99.90;;;;;;5053020;28;20673;-75
2023/04/18 12:26:56;;;;;;;13.50;8.40;;;18.00;99.90;;;;;;5051044;28;20633;-73
2023/04/18 12:29:24;;;;;;;14.47;8.93;;;18.20;99.90;;;;;;5034695;28;20207;-73
2023/04/18 12:31:51;;;;;;;14.30;9.03;;;18.20;99.90;;;;;;5034750;28;20199;-74
2023/04/18 12:34:19;;;;;;;17.00;9.33;;;18.20;99.90;;;;;;5034485;28;20628;-72
2023/04/18 12:36:46;;;;;;;14.80;9.50;;;18.10;99.90;;;;;;5052138;28;20278;-72
2023/04/18 12:39:13;;;;;;;15.23;9.63;;;18.00;99.90;;;;;;5034018;28;20230;-72
2023/04/18 12:41:40;;;;;;;16.07;9.40;;;17.80;99.90;;;;;;5034435;28;20289;-72